createdAt,value
2018-09-18T00:00:29.644Z,54.60
2018-09-18T00:02:58.014Z,53.90
2018-09-18T00:05:26.351Z,53.80
2018-09-18T00:07:54.779Z,54.00
2018-09-18T00:10:23.142Z,54.60
2018-09-18T00:12:51.565Z,54.00
2018-09-18T00:15:19.932Z,54.00
2018-09-18T00:17:48.351Z,54.30
2018-09-18T00:20:16.717Z,53.90
2018-09-18T00:22:45.252Z,53.80
2018-09-18T00:25:13.760Z,53.70
2018-09-18T00:27:42.161Z,54.00
2018-09-18T00:30:10.615Z,54.10
2018-09-18T00:32:39.017Z,53.70
2018-09-18T00:35:07.476Z,53.70
2018-09-18T00:37:35.901Z,53.80
2018-09-18T00:40:04.396Z,53.90
2018-09-18T00:42:32.851Z,54.00
2018-09-18T00:45:01.230Z,54.20
2018-09-18T00:47:29.651Z,54.20
2018-09-18T00:49:58.080Z,54.90
2018-09-18T00:52:26.423Z,54.50
2018-09-18T00:54:54.828Z,54.60
2018-09-18T00:57:23.170Z,54.80
2018-09-18T00:59:51.613Z,54.90
2018-09-18T01:02:20.034Z,55.20
2018-09-18T01:04:48.454Z,55.20
2018-09-18T01:07:16.863Z,55.20
2018-09-18T01:09:45.432Z,55.40
2018-09-18T01:12:13.846Z,55.60
2018-09-18T01:14:42.231Z,55.60
2018-09-18T01:17:10.626Z,55.70
2018-09-18T01:19:39.046Z,55.70
2018-09-18T01:22:07.480Z,55.90
2018-09-18T01:24:35.906Z,56.40
2018-09-18T01:27:04.289Z,56.10
2018-09-18T01:29:32.695Z,56.30
2018-09-18T01:32:01.041Z,56.50
2018-09-18T01:34:29.472Z,56.70
2018-09-18T01:36:57.862Z,56.60
2018-09-18T01:39:26.204Z,56.70
2018-09-18T01:41:54.589Z,56.70
2018-09-18T01:44:23.027Z,56.90
2018-09-18T01:46:51.381Z,56.80
2018-09-18T01:49:19.814Z,56.70
2018-09-18T01:51:48.167Z,56.80
2018-09-18T01:54:16.544Z,56.80
2018-09-18T01:56:44.884Z,56.90
2018-09-18T01:59:13.269Z,56.60
2018-09-18T02:01:41.693Z,56.70
2018-09-18T02:04:10.073Z,56.70
2018-09-18T02:06:38.508Z,56.90
2018-09-18T02:09:07.407Z,57.10
2018-09-18T02:11:35.862Z,57.10
2018-09-18T02:14:04.226Z,57.20
2018-09-18T02:16:32.760Z,57.20
2018-09-18T02:19:01.126Z,57.30
2018-09-18T02:21:29.485Z,57.40
2018-09-18T02:23:57.956Z,57.60
2018-09-18T02:26:26.348Z,57.60
2018-09-18T02:28:54.751Z,57.70
2018-09-18T02:31:23.110Z,57.80
2018-09-18T02:33:51.621Z,57.70
2018-09-18T02:36:19.991Z,57.70
2018-09-18T02:38:48.791Z,57.70
2018-09-18T02:41:17.214Z,57.90
2018-09-18T02:43:45.632Z,58.30
2018-09-18T02:46:14.024Z,59.30
2018-09-18T02:48:42.509Z,59.60
2018-09-18T02:51:11.340Z,59.60
2018-09-18T02:53:40.075Z,59.10
2018-09-18T02:56:08.557Z,59.20
2018-09-18T02:58:36.893Z,59.00
2018-09-18T03:01:05.432Z,59.00
2018-09-18T03:03:33.814Z,58.70
2018-09-18T03:06:02.225Z,58.70
2018-09-18T03:08:30.599Z,58.90
2018-09-18T03:10:59.043Z,59.00
2018-09-18T03:13:27.444Z,59.20
2018-09-18T03:15:55.874Z,59.30
2018-09-18T03:18:24.220Z,59.20
2018-09-18T03:20:52.971Z,59.50
2018-09-18T03:23:21.383Z,59.60
2018-09-18T03:25:49.808Z,59.60
2018-09-18T03:28:18.178Z,59.50
2018-09-18T03:30:46.569Z,59.70
2018-09-18T03:33:14.912Z,59.70
2018-09-18T03:35:43.625Z,59.60
2018-09-18T03:38:11.949Z,59.70
2018-09-18T03:40:40.347Z,59.90
2018-09-18T03:43:08.710Z,60.30
2018-09-18T03:45:37.257Z,60.50
2018-09-18T03:48:05.633Z,60.30
2018-09-18T03:50:34.059Z,60.30
2018-09-18T03:53:02.430Z,60.30
2018-09-18T03:55:30.921Z,60.20
2018-09-18T03:57:59.287Z,60.50
2018-09-18T04:00:27.798Z,60.60
2018-09-18T04:02:56.182Z,60.90
2018-09-18T04:05:25.543Z,61.20
2018-09-18T04:07:54.083Z,61.40
2018-09-18T04:10:22.614Z,62.40
2018-09-18T04:12:51.141Z,63.40
2018-09-18T04:15:19.547Z,62.80
2018-09-18T04:17:48.001Z,62.50
2018-09-18T04:20:16.456Z,63.30
2018-09-18T04:22:44.826Z,62.80
2018-09-18T04:25:13.233Z,62.90
2018-09-18T04:27:41.641Z,62.90
2018-09-18T04:30:10.151Z,63.30
2018-09-18T04:32:38.508Z,63.60
2018-09-18T04:35:06.886Z,63.80
2018-09-18T04:37:35.281Z,63.30
2018-09-18T04:40:03.711Z,63.30
2018-09-18T04:42:32.093Z,63.20
2018-09-18T04:45:00.480Z,63.00
2018-09-18T04:47:28.901Z,62.70
2018-09-18T04:49:57.280Z,62.60
2018-09-18T04:52:25.713Z,63.40
2018-09-18T04:54:54.152Z,62.60
2018-09-18T04:57:22.502Z,62.70
2018-09-18T04:59:50.859Z,62.70
2018-09-18T05:02:19.240Z,62.80
2018-09-18T05:04:47.668Z,62.90
2018-09-18T05:07:16.080Z,62.90
2018-09-18T05:09:44.482Z,62.80
2018-09-18T05:12:12.914Z,63.00
2018-09-18T05:14:41.284Z,63.00
2018-09-18T05:17:09.652Z,63.00
2018-09-18T05:19:37.983Z,63.10
2018-09-18T05:22:06.420Z,63.10
2018-09-18T05:24:34.797Z,63.30
2018-09-18T05:27:03.159Z,63.30
2018-09-18T05:29:31.536Z,63.20
2018-09-18T05:31:59.943Z,63.20
2018-09-18T05:34:28.365Z,63.30
2018-09-18T05:36:56.749Z,63.10
2018-09-18T05:39:25.111Z,63.10
2018-09-18T05:41:53.568Z,63.00
2018-09-18T05:44:22.013Z,62.90
2018-09-18T05:46:50.494Z,62.90
2018-09-18T05:49:18.917Z,63.10
2018-09-18T05:51:47.391Z,63.30
2018-09-18T05:54:15.766Z,63.30
2018-09-18T05:56:44.462Z,63.30
2018-09-18T05:59:12.810Z,63.10
2018-09-18T06:01:41.294Z,63.00
2018-09-18T06:04:09.996Z,63.20
2018-09-18T06:06:38.400Z,63.30
2018-09-18T06:09:09.145Z,63.30
2018-09-18T06:11:37.617Z,63.00
2018-09-18T06:14:06.014Z,62.90
2018-09-18T06:16:34.781Z,62.90
2018-09-18T06:19:04.171Z,62.90
2018-09-18T06:21:32.660Z,62.90
2018-09-18T06:24:01.282Z,62.70
2018-09-18T06:26:29.698Z,62.80
2018-09-18T06:28:58.632Z,62.50
2018-09-18T06:31:27.069Z,62.50
2018-09-18T06:33:55.577Z,62.70
2018-09-18T06:36:24.178Z,62.50
2018-09-18T06:38:52.572Z,62.30
2018-09-18T06:41:21.025Z,62.30
2018-09-18T06:43:49.462Z,62.10
2018-09-18T06:46:17.842Z,62.10
2018-09-18T06:48:46.313Z,62.10
2018-09-18T06:51:14.691Z,61.60
2018-09-18T06:53:43.220Z,61.40
2018-09-18T06:56:11.672Z,61.10
2018-09-18T06:58:40.235Z,60.80
2018-09-18T07:01:08.850Z,60.60
2018-09-18T07:03:37.367Z,60.40
2018-09-18T07:06:05.903Z,59.70
2018-09-18T07:08:34.315Z,59.60
2018-09-18T07:11:02.891Z,59.70
2018-09-18T07:13:31.338Z,59.40
2018-09-18T07:15:59.744Z,59.00
2018-09-18T07:18:28.183Z,58.30
2018-09-18T07:20:56.644Z,58.80
2018-09-18T07:23:25.056Z,58.50
2018-09-18T07:25:53.513Z,58.80
2018-09-18T07:28:21.990Z,58.90
2018-09-18T07:30:50.341Z,58.80
2018-09-18T07:33:18.759Z,58.50
2018-09-18T07:35:47.188Z,58.30
2018-09-18T07:38:15.617Z,57.60
2018-09-18T07:40:44.031Z,56.90
2018-09-18T07:43:12.451Z,56.60
2018-09-18T07:45:40.826Z,55.90
2018-09-18T07:48:09.257Z,55.60
2018-09-18T07:50:37.667Z,55.20
2018-09-18T07:53:06.367Z,54.60
2018-09-18T07:55:34.782Z,54.20
2018-09-18T07:58:03.180Z,53.70
2018-09-18T08:00:31.565Z,53.40
2018-09-18T08:02:59.973Z,53.60
2018-09-18T08:05:28.381Z,52.90
2018-09-18T08:07:56.841Z,52.40
2018-09-18T08:10:25.462Z,52.10
2018-09-18T08:12:53.883Z,51.70
2018-09-18T08:15:22.295Z,51.10
2018-09-18T08:17:50.719Z,50.80
2018-09-18T08:20:19.191Z,50.30
2018-09-18T08:22:47.608Z,50.30
2018-09-18T08:25:16.114Z,49.80
2018-09-18T08:27:44.478Z,49.70
2018-09-18T08:30:12.825Z,49.50
2018-09-18T08:32:41.362Z,48.90
2018-09-18T08:35:09.744Z,49.30
2018-09-18T08:37:38.084Z,48.80
2018-09-18T08:40:06.521Z,48.60
2018-09-18T08:42:34.977Z,48.40
2018-09-18T08:45:03.394Z,48.50
2018-09-18T08:47:31.729Z,48.40
2018-09-18T08:50:00.256Z,48.50
2018-09-18T08:52:28.659Z,48.30
2018-09-18T08:54:57.030Z,48.10
2018-09-18T08:57:25.420Z,47.80
2018-09-18T08:59:53.960Z,47.60
2018-09-18T09:02:22.410Z,48.20
2018-09-18T09:04:50.867Z,47.00
2018-09-18T09:07:19.262Z,46.40
2018-09-18T09:09:47.661Z,46.20
2018-09-18T09:12:16.041Z,45.40
2018-09-18T09:14:44.522Z,45.10
2018-09-18T09:17:12.849Z,44.80
2018-09-18T09:19:41.290Z,44.60
2018-09-18T09:22:09.713Z,45.00
2018-09-18T09:24:38.427Z,44.60
2018-09-18T09:27:06.916Z,43.80
2018-09-18T09:29:35.402Z,43.30
2018-09-18T09:32:03.747Z,43.40
2018-09-18T09:34:32.113Z,42.80
2018-09-18T09:37:00.577Z,42.50
2018-09-18T09:39:29.032Z,42.10
2018-09-18T09:41:57.534Z,42.50
2018-09-18T09:44:25.988Z,42.10
2018-09-18T09:46:54.372Z,42.00
2018-09-18T09:49:22.787Z,41.50
2018-09-18T09:51:51.205Z,40.60
2018-09-18T09:54:19.618Z,40.10
2018-09-18T09:56:48.076Z,39.30
2018-09-18T09:59:16.451Z,39.20
2018-09-18T10:01:55.193Z,38.90
2018-09-18T10:04:24.015Z,38.10
2018-09-18T10:06:52.542Z,37.70
2018-09-18T10:09:20.920Z,37.10
2018-09-18T10:11:49.350Z,36.80
2018-09-18T10:14:17.738Z,36.00
2018-09-18T10:16:46.124Z,36.20
2018-09-18T10:19:14.514Z,36.30
2018-09-18T10:21:42.904Z,35.60
2018-09-18T10:24:11.335Z,35.30
2018-09-18T10:26:40.151Z,34.70
2018-09-18T10:29:08.693Z,34.50
2018-09-18T10:31:37.199Z,33.80
2018-09-18T10:34:05.737Z,33.30
2018-09-18T10:36:34.179Z,33.00
2018-09-18T10:39:02.648Z,32.40
2018-09-18T10:41:31.230Z,32.60
2018-09-18T10:43:59.774Z,32.40
2018-09-18T10:46:28.145Z,31.90
2018-09-18T10:48:57.631Z,31.10
2018-09-18T10:51:26.274Z,31.00
2018-09-18T10:53:55.293Z,31.20
2018-09-18T10:56:23.836Z,31.00
2018-09-18T10:58:52.218Z,30.50
2018-09-18T11:01:20.753Z,30.40
2018-09-18T11:03:49.193Z,30.20
2018-09-18T11:06:17.618Z,30.10
2018-09-18T11:08:46.067Z,30.00
2018-09-18T11:11:14.575Z,30.00
2018-09-18T11:13:43.048Z,30.00
2018-09-18T11:16:11.600Z,30.00
2018-09-18T11:18:39.878Z,30.00
2018-09-18T11:21:08.313Z,29.20
2018-09-18T11:23:36.717Z,29.20
2018-09-18T11:26:05.162Z,28.40
2018-09-18T11:28:33.736Z,28.30
2018-09-18T11:31:02.173Z,28.00
2018-09-18T11:33:30.612Z,27.70
2018-09-18T11:35:59.097Z,27.10
2018-09-18T11:38:27.624Z,26.90
2018-09-18T11:40:56.129Z,26.80
2018-09-18T11:43:24.524Z,27.10
2018-09-18T11:45:53.344Z,26.60
2018-09-18T11:48:21.629Z,26.30
2018-09-18T11:50:50.154Z,26.20
2018-09-18T11:53:18.520Z,25.90
2018-09-18T11:55:46.959Z,25.80
2018-09-18T11:58:15.369Z,25.20
2018-09-18T12:00:43.800Z,25.10
2018-09-18T12:03:12.248Z,25.00
2018-09-18T12:05:40.782Z,24.60
2018-09-18T12:08:09.269Z,24.50
2018-09-18T12:10:37.692Z,24.30
2018-09-18T12:13:06.152Z,24.50
2018-09-18T12:15:34.590Z,24.50
2018-09-18T12:18:03.100Z,24.50
2018-09-18T12:20:31.628Z,24.40
2018-09-18T12:23:00.081Z,24.50
2018-09-18T12:25:28.620Z,24.20
2018-09-18T12:27:57.027Z,23.90
2018-09-18T12:30:25.533Z,23.80
2018-09-18T12:32:53.967Z,24.10
2018-09-18T12:35:22.472Z,24.10
2018-09-18T12:37:50.918Z,23.50
2018-09-18T12:40:19.277Z,23.50
2018-09-18T12:42:47.753Z,23.70
2018-09-18T12:45:16.246Z,23.50
2018-09-18T12:47:44.624Z,23.10
2018-09-18T12:50:13.397Z,23.70
2018-09-18T12:52:41.716Z,23.30
2018-09-18T12:55:10.165Z,23.70
2018-09-18T12:57:38.848Z,23.60
2018-09-18T13:00:07.392Z,23.30
2018-09-18T13:02:35.820Z,23.20
2018-09-18T13:05:04.276Z,22.70
2018-09-18T13:07:32.767Z,22.70
2018-09-18T13:10:01.224Z,23.00
2018-09-18T13:12:29.662Z,22.60
2018-09-18T13:14:58.136Z,23.20
2018-09-18T13:17:26.595Z,23.30
2018-09-18T13:19:55.153Z,23.20
2018-09-18T13:22:23.588Z,22.70
2018-09-18T13:24:52.039Z,22.90
2018-09-18T13:27:20.499Z,23.10
2018-09-18T13:29:49.267Z,22.90
2018-09-18T13:32:17.949Z,22.70
2018-09-18T13:34:46.376Z,22.50
2018-09-18T13:37:14.795Z,22.60
2018-09-18T13:39:43.272Z,22.50
2018-09-18T13:42:11.810Z,22.40
2018-09-18T13:44:40.302Z,22.60
2018-09-18T13:47:08.739Z,22.40
2018-09-18T13:49:37.158Z,22.30
2018-09-18T13:52:05.582Z,22.00
2018-09-18T13:54:33.978Z,21.50
2018-09-18T13:57:02.447Z,21.70
2018-09-18T13:59:30.874Z,21.40
2018-09-18T14:01:59.437Z,21.40
2018-09-18T14:04:28.017Z,21.50
2018-09-18T14:06:56.556Z,21.60
2018-09-18T14:09:25.306Z,21.70
2018-09-18T14:11:53.739Z,22.20
2018-09-18T14:14:22.262Z,22.60
2018-09-18T14:16:50.649Z,22.80
2018-09-18T14:19:19.061Z,22.80
2018-09-18T14:21:47.781Z,22.80
2018-09-18T14:24:16.249Z,22.50
2018-09-18T14:26:44.732Z,22.40
2018-09-18T14:29:13.155Z,22.10
2018-09-18T14:31:41.781Z,21.90
2018-09-18T14:34:10.147Z,21.80
2018-09-18T14:36:38.613Z,21.50
2018-09-18T14:39:09.081Z,21.30
2018-09-18T14:41:37.774Z,21.20
2018-09-18T14:44:06.189Z,21.30
2018-09-18T14:46:34.675Z,21.20
2018-09-18T14:49:03.113Z,21.30
2018-09-18T14:51:31.768Z,21.10
2018-09-18T14:54:00.150Z,20.70
2018-09-18T14:56:28.606Z,20.80
2018-09-18T14:58:57.125Z,20.50
2018-09-18T15:01:25.627Z,20.40
2018-09-18T15:03:54.041Z,20.40
2018-09-18T15:06:22.501Z,20.60
2018-09-18T15:08:50.905Z,20.50
2018-09-18T15:11:19.304Z,20.40
2018-09-18T15:13:47.718Z,19.70
2018-09-18T15:16:16.199Z,20.00
2018-09-18T15:18:44.613Z,19.60
2018-09-18T15:21:12.995Z,19.90
2018-09-18T15:23:41.437Z,19.90
2018-09-18T15:26:09.851Z,19.90
2018-09-18T15:28:38.276Z,20.10
2018-09-18T15:31:07.456Z,20.10
2018-09-18T15:33:35.965Z,20.50
2018-09-18T15:36:04.464Z,20.30
2018-09-18T15:38:32.928Z,20.60
2018-09-18T15:41:01.359Z,20.90
2018-09-18T15:43:29.858Z,20.90
2018-09-18T15:45:58.300Z,21.30
2018-09-18T15:48:26.810Z,21.60
2018-09-18T15:50:55.218Z,21.80
2018-09-18T15:53:23.733Z,21.90
2018-09-18T15:55:52.179Z,22.20
2018-09-18T15:58:20.574Z,22.50
2018-09-18T16:00:49.030Z,22.90
2018-09-18T16:03:17.766Z,23.00
2018-09-18T16:05:46.139Z,23.40
2018-09-18T16:08:14.775Z,23.10
2018-09-18T16:10:43.236Z,23.30
2018-09-18T16:13:11.755Z,23.70
2018-09-18T16:15:40.128Z,23.70
2018-09-18T16:18:08.709Z,24.00
2018-09-18T16:20:37.130Z,24.20
2018-09-18T16:23:05.556Z,24.40
2018-09-18T16:25:33.933Z,24.60
2018-09-18T16:28:02.335Z,24.80
2018-09-18T16:30:30.802Z,24.90
2018-09-18T16:32:59.187Z,25.10
2018-09-18T16:35:27.629Z,25.30
2018-09-18T16:37:56.074Z,25.40
2018-09-18T16:40:24.519Z,25.60
2018-09-18T16:42:52.822Z,25.90
2018-09-18T16:45:21.223Z,26.10
2018-09-18T16:47:49.714Z,26.20
2018-09-18T16:50:18.152Z,26.50
2018-09-18T16:52:46.568Z,26.50
2018-09-18T16:55:15.112Z,26.60
2018-09-18T16:57:43.469Z,26.80
2018-09-18T17:00:11.921Z,27.00
2018-09-18T17:02:40.434Z,27.20
2018-09-18T17:05:08.901Z,27.40
2018-09-18T17:07:37.565Z,27.50
2018-09-18T17:10:05.987Z,27.50
2018-09-18T17:12:34.484Z,27.60
2018-09-18T17:15:03.215Z,27.70
2018-09-18T17:17:31.609Z,27.80
2018-09-18T17:20:00.031Z,27.90
2018-09-18T17:22:28.426Z,28.00
2018-09-18T17:24:56.808Z,28.20
2018-09-18T17:27:25.311Z,28.50
2018-09-18T17:29:53.770Z,28.70
2018-09-18T17:32:22.160Z,28.90
2018-09-18T17:34:50.587Z,29.10
2018-09-18T17:37:19.111Z,29.30
2018-09-18T17:39:47.574Z,29.70
2018-09-18T17:42:15.985Z,30.00
2018-09-18T17:44:44.424Z,30.00
2018-09-18T17:47:12.831Z,30.00
2018-09-18T17:49:41.297Z,30.20
2018-09-18T17:52:09.822Z,30.30
2018-09-18T17:54:38.349Z,30.50
2018-09-18T17:57:07.476Z,30.50
2018-09-18T17:59:37.756Z,31.60
2018-09-18T18:02:06.868Z,32.30
2018-09-18T18:04:35.364Z,32.80
2018-09-18T18:07:03.932Z,33.30
2018-09-18T18:09:32.453Z,33.40
2018-09-18T18:12:00.927Z,33.10
2018-09-18T18:14:29.466Z,33.00
2018-09-18T18:16:58.028Z,33.20
2018-09-18T18:19:26.551Z,33.30
2018-09-18T18:21:54.961Z,33.00
2018-09-18T18:24:23.492Z,33.00
2018-09-18T18:26:51.955Z,33.20
2018-09-18T18:29:20.444Z,33.20
2018-09-18T18:31:48.962Z,33.30
2018-09-18T18:34:17.474Z,33.90
2018-09-18T18:36:46.042Z,33.70
2018-09-18T18:39:14.500Z,33.90
2018-09-18T18:41:43.060Z,34.10
2018-09-18T18:44:11.508Z,34.30
2018-09-18T18:46:39.951Z,34.30
2018-09-18T18:49:08.473Z,34.40
2018-09-18T18:51:36.896Z,34.40
2018-09-18T18:54:05.459Z,34.50
2018-09-18T18:56:33.916Z,34.60
2018-09-18T18:59:02.343Z,34.80
2018-09-18T19:04:05.638Z,35.00
2018-09-18T19:06:34.295Z,35.10
2018-09-18T19:09:02.594Z,35.90
2018-09-18T19:11:31.038Z,35.40
2018-09-18T19:13:59.514Z,35.60
2018-09-18T19:16:27.947Z,35.90
2018-09-18T19:18:56.401Z,35.90
2018-09-18T19:21:24.876Z,36.00
2018-09-18T19:23:53.332Z,36.10
2018-09-18T19:26:21.768Z,36.30
2018-09-18T19:28:50.253Z,36.30
2018-09-18T19:31:18.689Z,36.60
2018-09-18T19:33:47.195Z,36.50
2018-09-18T19:36:15.651Z,36.70
2018-09-18T19:38:44.106Z,36.80
2018-09-18T19:41:13.092Z,37.00
2018-09-18T19:43:41.555Z,37.10
2018-09-18T19:46:10.009Z,37.20
2018-09-18T19:48:38.600Z,37.10
2018-09-18T19:51:07.030Z,37.40
2018-09-18T19:53:35.507Z,37.50
2018-09-18T19:56:03.940Z,37.80
2018-09-18T19:58:32.415Z,37.90
2018-09-18T20:01:01.066Z,38.00
2018-09-18T20:03:29.545Z,38.20
2018-09-18T20:05:58.079Z,38.20
2018-09-18T20:08:26.564Z,38.40
2018-09-18T20:10:55.076Z,38.40
2018-09-18T20:13:23.601Z,38.50
2018-09-18T20:15:52.021Z,38.50
2018-09-18T20:18:20.586Z,38.70
2018-09-18T20:20:49.059Z,38.70
2018-09-18T20:23:17.545Z,38.80
2018-09-18T20:25:46.006Z,38.90
2018-09-18T20:28:15.022Z,39.10
2018-09-18T20:30:43.488Z,39.30
2018-09-18T20:33:12.192Z,39.20
2018-09-18T20:35:40.754Z,39.50
2018-09-18T20:38:09.230Z,39.80
2018-09-18T20:40:37.670Z,39.80
2018-09-18T20:43:06.122Z,39.90
2018-09-18T20:45:34.517Z,40.10
2018-09-18T20:48:02.977Z,40.20
2018-09-18T20:50:31.542Z,40.40
2018-09-18T20:52:59.949Z,40.40
2018-09-18T20:55:28.437Z,40.40
2018-09-18T20:57:56.898Z,40.60
2018-09-18T21:00:25.369Z,40.70
2018-09-18T21:02:54.006Z,40.90
2018-09-18T21:05:22.513Z,41.00
2018-09-18T21:07:50.957Z,41.10
2018-09-18T21:10:19.356Z,41.20
2018-09-18T21:12:47.864Z,41.40
2018-09-18T21:15:16.289Z,41.30
2018-09-18T21:17:44.757Z,41.40
2018-09-18T21:20:13.157Z,41.50
2018-09-18T21:22:41.627Z,41.50
2018-09-18T21:25:14.974Z,41.60
2018-09-18T21:27:44.665Z,41.80
2018-09-18T21:30:13.944Z,41.90
2018-09-18T21:32:42.384Z,42.10
2018-09-18T21:35:10.809Z,42.20
2018-09-18T21:37:39.600Z,42.40
2018-09-18T21:40:08.059Z,42.60
2018-09-18T21:42:36.568Z,42.60
2018-09-18T21:45:05.029Z,42.80
2018-09-18T21:47:33.587Z,43.00
2018-09-18T21:50:02.109Z,43.70
2018-09-18T21:52:30.563Z,43.30
2018-09-18T21:54:59.061Z,43.40
2018-09-18T21:57:27.430Z,43.50
2018-09-18T21:59:55.995Z,43.60
2018-09-18T22:02:24.469Z,43.70
2018-09-18T22:04:52.982Z,43.90
2018-09-18T22:07:21.383Z,44.00
2018-09-18T22:09:49.798Z,44.00
2018-09-18T22:12:18.325Z,44.00
2018-09-18T22:14:46.752Z,44.10
2018-09-18T22:17:15.158Z,44.20
2018-09-18T22:19:43.581Z,44.20
2018-09-18T22:22:11.985Z,44.30
2018-09-18T22:24:40.449Z,44.50
2018-09-18T22:27:08.916Z,44.50
2018-09-18T22:29:37.378Z,44.60
2018-09-18T22:32:05.774Z,44.80
2018-09-18T22:34:34.171Z,44.80
2018-09-18T22:37:02.568Z,45.00
2018-09-18T22:39:30.974Z,45.20
2018-09-18T22:41:59.409Z,45.20
2018-09-18T22:44:27.884Z,45.40
2018-09-18T22:46:56.392Z,46.10
2018-09-18T22:49:24.799Z,45.60
2018-09-18T22:51:53.172Z,45.60
2018-09-18T22:54:21.512Z,45.60
2018-09-18T22:56:49.934Z,45.60
2018-09-18T22:59:18.287Z,45.70
2018-09-18T23:01:46.737Z,45.90
2018-09-18T23:04:15.114Z,46.00
2018-09-18T23:06:43.529Z,46.10
2018-09-18T23:09:11.900Z,46.20
2018-09-18T23:11:40.334Z,46.40
2018-09-18T23:14:08.670Z,46.40
2018-09-18T23:16:37.075Z,46.60
2018-09-18T23:19:05.564Z,46.70
2018-09-18T23:21:33.964Z,46.80
2018-09-18T23:24:02.404Z,46.90
2018-09-18T23:26:30.776Z,47.00
2018-09-18T23:28:59.171Z,47.20
2018-09-18T23:31:27.589Z,47.40
2018-09-18T23:33:55.993Z,47.50
2018-09-18T23:36:24.383Z,47.50
2018-09-18T23:38:52.791Z,47.70
2018-09-18T23:41:21.139Z,47.70
2018-09-18T23:43:49.551Z,47.80
2018-09-18T23:46:17.912Z,48.10
2018-09-18T23:48:46.333Z,48.80
2018-09-18T23:51:14.706Z,48.40
2018-09-18T23:53:43.095Z,48.60
2018-09-18T23:56:11.474Z,48.80
2018-09-18T23:58:39.981Z,48.90
